Time;durP1;ratioP1;P1;durP2;ratioP2;P2;SDS_P1;SDS_P2;PMS_P1;PMS_P2;Temp;Humidity;BMP_temperature;BMP_pressure;BME280_temperature;BME280_humidity;BME280_pressure;Samples;Min_cycle;Max_cycle;Signal;HPM_P1;HPM_P2
2020/12/21 00:00:11;;;;;;;26.75;16.82;;;;;;;0.11;79.97;99652.63;1785014;80;20995;-73
2020/12/21 00:02:42;;;;;;;21.33;15.50;;;;;;;0.10;80.02;99652.20;1785320;80;21500;-72
2020/12/21 00:05:09;;;;;;;69.10;36.20;;;;;;;0.10;80.08;99654.84;1759136;80;20952;-72
2020/12/21 00:07:38;;;;;;;61.65;33.75;;;;;;;0.10;80.10;99662.32;1785250;78;20952;-72
2020/12/21 00:10:07;;;;;;;47.70;24.27;;;;;;;0.11;80.13;99659.22;1785243;80;20932;-72
2020/12/21 00:12:35;;;;;;;43.38;22.10;;;;;;;0.09;80.14;99653.08;1785176;80;20971;-72
2020/12/21 00:15:05;;;;;;;35.88;22.17;;;;;;;0.11;80.16;99663.19;1785260;80;21193;-72
2020/12/21 00:17:34;;;;;;;55.92;31.52;;;;;;;0.11;80.18;99664.51;1785184;80;20944;-72
2020/12/21 00:20:04;;;;;;;28.27;19.05;;;;;;;0.11;80.13;99657.91;1785219;80;20999;-73
2020/12/21 00:22:31;;;;;;;24.70;15.93;;;;;;;0.10;80.10;99667.61;1785323;80;21511;-73
2020/12/21 00:24:59;;;;;;;23.00;15.83;;;;;;;0.11;80.12;99669.80;1785163;80;20935;-72
2020/12/21 00:27:26;;;;;;;20.48;14.07;;;;;;;0.11;80.12;99667.15;1785326;80;22079;-72
2020/12/21 00:29:55;;;;;;;20.77;14.83;;;;;;;0.11;80.09;99672.44;1785290;80;20999;-72
2020/12/21 00:32:24;;;;;;;20.52;13.75;;;;;;;0.11;80.07;99672.44;1785325;80;21449;-73
2020/12/21 00:34:53;;;;;;;20.62;14.63;;;;;;;0.11;80.11;99674.66;1784824;80;21027;-72
2020/12/21 00:37:21;;;;;;;21.60;14.80;;;;;;;0.11;80.17;99673.76;1785306;80;21325;-73
2020/12/21 00:39:49;;;;;;;20.43;14.98;;;;;;;0.11;80.15;99669.80;1785167;80;21766;-72
2020/12/21 00:42:17;;;;;;;19.98;14.80;;;;;;;0.10;80.20;99662.78;1785139;80;20951;-72
2020/12/21 00:44:46;;;;;;;19.20;14.07;;;;;;;0.10;80.16;99657.49;1785199;80;20920;-72
2020/12/21 00:47:14;;;;;;;18.17;13.95;;;;;;;0.11;80.08;99667.15;1785314;80;21547;-72
2020/12/21 00:49:42;;;;;;;20.70;15.00;;;;;;;0.10;80.02;99661.45;1785224;80;21034;-73
2020/12/21 00:52:09;;;;;;;21.80;14.83;;;;;;;0.09;79.99;99661.01;1785230;80;21190;-72
2020/12/21 00:54:38;;;;;;;20.20;13.95;;;;;;;0.08;79.97;99660.14;1785132;80;20931;-71
2020/12/21 00:57:05;;;;;;;21.27;14.80;;;;;;;0.07;80.02;99649.59;1785271;80;21028;-71
2020/12/21 00:59:33;;;;;;;21.95;15.20;;;;;;;0.07;80.01;99653.55;1784949;80;21037;-73
2020/12/21 01:02:06;;;;;;;19.32;14.47;;;;;;;0.05;80.07;99655.30;1785269;80;21054;-73
2020/12/21 01:04:33;;;;;;;21.23;14.78;;;;;;;0.05;80.07;99651.34;1785013;79;22468;-72
2020/12/21 01:07:00;;;;;;;21.80;15.68;;;;;;;0.06;80.10;99648.69;1785224;80;20927;-72
2020/12/21 01:09:28;;;;;;;19.12;14.47;;;;;;;0.07;80.03;99646.95;1785175;80;20940;-72
2020/12/21 01:11:56;;;;;;;22.98;15.03;;;;;;;0.07;80.02;99646.95;1785204;80;20928;-71
2020/12/21 01:14:23;;;;;;;21.65;14.30;;;;;;;0.06;79.96;99646.50;1785380;80;20983;-72
2020/12/21 01:16:53;;;;;;;21.30;14.95;;;;;;;0.07;79.89;99646.95;1785373;80;21242;-72
2020/12/21 01:19:20;;;;;;;20.37;13.48;;;;;;;0.06;79.85;99643.86;1785330;80;20947;-72
2020/12/21 01:21:48;;;;;;;24.00;15.90;;;;;;;0.06;79.84;99639.44;1785341;80;20932;-72
2020/12/21 01:24:16;;;;;;;19.75;15.55;;;;;;;0.04;79.81;99637.27;1785338;80;20916;-72
2020/12/21 01:26:44;;;;;;;20.25;14.43;;;;;;;0.05;79.70;99638.13;1785362;80;20991;-72
2020/12/21 01:29:11;;;;;;;17.62;14.63;;;;;;;0.04;79.60;99640.36;1785416;80;21379;-72
2020/12/21 01:31:41;;;;;;;20.20;14.95;;;;;;;0.03;79.63;99637.27;1785324;80;20943;-72
2020/12/21 01:34:13;;;;;;;20.55;15.08;;;;;;;0.01;79.56;99633.78;1785297;80;21046;-72
2020/12/21 01:36:42;;;;;;;21.33;15.90;;;;;;;-0.02;79.52;99640.84;1785361;80;21018;-72
2020/12/21 01:39:10;;;;;;;19.37;14.87;;;;;;;-0.04;79.54;99645.23;1785409;80;20915;-72
2020/12/21 01:41:37;;;;;;;21.68;15.03;;;;;;;-0.05;79.62;99639.55;1785382;80;21379;-72
2020/12/21 01:44:05;;;;;;;20.17;15.50;;;;;;;-0.07;79.76;99636.02;1785272;80;20998;-72
2020/12/21 01:46:33;;;;;;;20.75;15.08;;;;;;;-0.08;79.71;99635.59;1785395;80;21018;-72
2020/12/21 01:49:00;;;;;;;20.95;14.68;;;;;;;-0.09;79.78;99629.88;1785302;80;20924;-72
2020/12/21 01:51:29;;;;;;;18.17;14.63;;;;;;;-0.10;79.69;99637.34;1785313;80;20924;-72
2020/12/21 01:53:56;;;;;;;20.57;14.43;;;;;;;-0.13;79.80;99629.44;1785360;80;21369;-72
2020/12/21 01:56:24;;;;;;;21.93;15.32;;;;;;;-0.13;79.83;99634.72;1785354;80;20983;-72
2020/12/21 01:58:51;;;;;;;21.87;14.58;;;;;;;-0.14;79.77;99634.73;1785359;80;21023;-72
2020/12/21 02:01:19;;;;;;;22.87;14.43;;;;;;;-0.15;79.70;99631.68;1767394;80;20919;-72
2020/12/21 02:03:48;;;;;;;24.40;15.55;;;;;;;-0.19;79.63;99626.41;1757537;81;20887;-72
2020/12/21 02:06:18;;;;;;;18.92;14.33;;;;;;;-0.20;79.68;99622.47;1705927;81;22329;-72
2020/12/21 02:08:46;;;;;;;18.70;13.75;;;;;;;-0.22;79.77;99629.08;1757441;81;21010;-72
2020/12/21 02:11:13;;;;;;;21.45;15.10;;;;;;;-0.24;79.82;99628.64;1752158;82;20998;-72
2020/12/21 02:13:43;;;;;;;20.40;14.35;;;;;;;-0.26;79.81;99625.14;1752121;82;20979;-71
2020/12/21 02:16:15;;;;;;;20.05;14.75;;;;;;;-0.30;79.82;99612.83;1757537;81;20879;-72
2020/12/21 02:18:41;;;;;;;18.40;13.43;;;;;;;-0.34;79.89;99619.90;1752129;82;21438;-72
2020/12/21 02:21:09;;;;;;;19.65;13.38;;;;;;;-0.35;79.98;99617.27;1752152;82;21377;-72
2020/12/21 02:23:36;;;;;;;18.15;13.95;;;;;;;-0.40;80.04;99617.29;1757450;80;20931;-72
2020/12/21 02:26:05;;;;;;;19.35;14.30;;;;;;;-0.42;80.10;99611.16;1757442;81;20987;-72
2020/12/21 02:28:32;;;;;;;22.93;14.93;;;;;;;-0.44;80.24;99615.12;1752211;82;21511;-72
2020/12/21 02:31:00;;;;;;;18.75;14.13;;;;;;;-0.49;80.22;99611.64;1757599;81;22267;-72
2020/12/21 02:33:28;;;;;;;18.15;14.33;;;;;;;-0.51;80.26;99612.52;1752048;82;20931;-72
2020/12/21 02:35:56;;;;;;;21.33;15.08;;;;;;;-0.55;80.19;99609.89;1757506;81;20990;-72
2020/12/21 02:38:24;;;;;;;19.77;15.13;;;;;;;-0.62;80.24;99604.64;1752209;82;21416;-72
2020/12/21 02:40:51;;;;;;;19.10;13.50;;;;;;;-0.67;80.33;99613.91;1752114;82;20925;-72
2020/12/21 02:43:20;;;;;;;19.42;13.48;;;;;;;-0.71;80.42;99619.20;1757389;81;21125;-72
2020/12/21 02:45:48;;;;;;;17.92;13.80;;;;;;;-0.79;80.58;99617.48;1752093;82;20923;-72
2020/12/21 02:48:16;;;;;;;25.00;16.30;;;;;;;-0.83;80.82;99614.86;1757595;81;20979;-71
2020/12/21 02:50:46;;;;;;;21.75;14.13;;;;;;;-0.88;81.12;99612.23;1752138;82;21440;-72
2020/12/21 02:53:15;;;;;;;21.17;15.23;;;;;;;-0.91;81.31;99613.11;1752122;81;21006;-72
2020/12/21 02:55:44;;;;;;;25.25;16.32;;;;;;;-0.92;81.39;99604.75;1757452;81;21309;-72
2020/12/21 02:58:12;;;;;;;27.58;16.65;;;;;;;-0.91;81.56;99605.66;1752074;82;21050;-71
2020/12/21 03:00:40;;;;;;;18.37;13.08;;;;;;;-0.91;81.81;99605.20;1752024;81;20904;-71
2020/12/21 03:03:09;;;;;;;24.72;15.65;;;;;;;-0.91;81.83;99601.70;1751920;81;20923;-72
2020/12/21 03:05:37;;;;;;;23.87;15.20;;;;;;;-0.89;81.91;99604.33;1752180;82;20932;-71
2020/12/21 03:08:06;;;;;;;21.45;15.13;;;;;;;-0.89;81.93;99603.02;1757554;81;21449;-71
2020/12/21 03:10:37;;;;;;;21.50;15.13;;;;;;;-0.89;82.01;99597.28;1752023;80;21336;-71
2020/12/21 03:13:06;;;;;;;22.93;16.42;;;;;;;-0.89;82.06;99590.69;1757464;81;20947;-72
2020/12/21 03:15:34;;;;;;;22.02;15.28;;;;;;;-0.88;82.09;99596.41;1752012;82;20983;-71
2020/12/21 03:18:02;;;;;;;31.65;16.00;;;;;;;-0.87;82.09;99594.19;1757490;81;20931;-71
2020/12/21 03:20:30;;;;;;;25.57;16.37;;;;;;;-0.86;82.02;99589.81;1757455;81;21183;-71
2020/12/21 03:22:57;;;;;;;25.72;15.38;;;;;;;-0.87;81.93;99594.19;1751988;82;20947;-71
2020/12/21 03:25:25;;;;;;;21.17;15.08;;;;;;;-0.88;82.01;99596.83;1757368;81;20939;-71
2020/12/21 03:27:52;;;;;;;23.45;16.02;;;;;;;-0.88;82.15;99595.52;1752115;82;21022;-72
2020/12/21 03:30:20;;;;;;;25.77;16.52;;;;;;;-0.89;82.18;99590.69;1757508;81;20911;-72
2020/12/21 03:32:49;;;;;;;29.07;18.42;;;;;;;-0.89;82.24;99590.69;1722859;82;21148;-71
2020/12/21 03:35:19;;;;;;;22.58;15.40;;;;;;;-0.89;82.34;99592.00;1755734;81;20967;-71
2020/12/21 03:37:48;;;;;;;22.40;14.75;;;;;;;-0.89;82.30;99592.00;1752038;82;20935;-71
2020/12/21 03:40:15;;;;;;;21.12;15.13;;;;;;;-0.90;82.19;99586.28;1752069;82;21003;-71
2020/12/21 03:42:44;;;;;;;23.40;17.32;;;;;;;-0.91;82.22;99586.73;1757415;81;20983;-71
2020/12/21 03:45:11;;;;;;;24.12;16.12;;;;;;;-0.91;82.11;99592.02;1757440;81;21358;-71
2020/12/21 03:47:38;;;;;;;23.40;16.15;;;;;;;-0.91;82.10;99591.15;1757468;81;20935;-70
2020/12/21 03:50:09;;;;;;;28.23;17.37;;;;;;;-0.92;82.10;99591.56;1752092;82;20931;-73
2020/12/21 03:52:36;;;;;;;35.85;18.48;;;;;;;-0.92;82.13;99588.06;1757339;81;20943;-73
2020/12/21 03:55:05;;;;;;;34.58;19.23;;;;;;;-0.92;82.05;99593.34;1757444;81;20982;-73
2020/12/21 03:57:32;;;;;;;28.50;17.12;;;;;;;-0.92;82.03;99594.66;1752221;82;22671;-71
2020/12/21 04:00:00;;;;;;;33.85;18.62;;;;;;;-0.92;81.94;99601.25;1757354;81;20926;-73
2020/12/21 04:02:27;;;;;;;28.25;17.37;;;;;;;-0.94;81.99;99598.62;1751996;81;20904;-73
2020/12/21 04:04:55;;;;;;;39.65;18.52;;;;;;;-0.96;82.03;99585.89;1757325;81;20990;-73
2020/12/21 04:07:23;;;;;;;33.70;17.05;;;;;;;-0.94;82.05;99587.20;1752098;81;20994;-72
2020/12/21 04:09:50;;;;;;;25.23;15.63;;;;;;;-0.96;82.16;99592.94;1757413;81;21376;-72
2020/12/21 04:12:19;;;;;;;24.55;16.57;;;;;;;-0.96;82.19;99590.30;1752042;82;20927;-73
2020/12/21 04:14:48;;;;;;;29.27;16.65;;;;;;;-0.97;82.23;99591.17;1757344;81;21350;-73
2020/12/21 04:17:15;;;;;;;32.85;17.23;;;;;;;-0.97;82.30;99593.80;1752086;82;20975;-73
2020/12/21 04:19:44;;;;;;;28.75;17.77;;;;;;;-0.98;82.25;99590.30;1751987;82;20999;-73
2020/12/21 04:22:11;;;;;;;37.00;23.35;;;;;;;-0.97;82.26;99593.80;1757393;81;21426;-73
2020/12/21 04:24:39;;;;;;;26.82;18.25;;;;;;;-0.98;82.18;99587.66;1757325;81;20931;-72
2020/12/21 04:27:06;;;;;;;26.50;17.75;;;;;;;-0.99;82.09;99595.58;1752073;82;21396;-72
2020/12/21 04:29:33;;;;;;;32.00;18.57;;;;;;;-0.99;81.97;99596.89;1757343;81;20935;-72
2020/12/21 04:32:01;;;;;;;30.40;19.40;;;;;;;-1.01;82.09;99591.63;1752034;82;20931;-72
2020/12/21 04:34:29;;;;;;;30.50;18.23;;;;;;;-1.01;82.18;99589.41;1757452;81;21885;-73
2020/12/21 04:36:57;;;;;;;36.58;21.12;;;;;;;-1.01;82.19;99595.58;1752102;82;20999;-73
2020/12/21 04:39:25;;;;;;;29.55;18.23;;;;;;;-1.01;82.24;99595.58;1757408;81;21421;-73
2020/12/21 04:41:57;;;;;;;25.00;17.05;;;;;;;-1.00;82.18;99603.05;1752023;82;21443;-73
2020/12/21 04:44:25;;;;;;;28.47;16.17;;;;;;;-1.01;82.20;99596.00;1757380;81;20975;-73
2020/12/21 04:46:56;;;;;;;26.48;17.70;;;;;;;-1.02;82.24;99598.22;1752015;82;21188;-73
2020/12/21 04:49:24;;;;;;;29.57;17.70;;;;;;;-1.03;82.20;99594.69;1757432;81;20990;-72
2020/12/21 04:51:51;;;;;;;30.90;17.10;;;;;;;-1.00;82.30;99597.77;1752105;82;21341;-72
2020/12/21 04:54:19;;;;;;;24.77;16.32;;;;;;;-1.02;82.38;99599.09;1757351;81;20880;-72
2020/12/21 04:56:47;;;;;;;21.30;15.38;;;;;;;-1.01;82.40;99598.64;1752127;82;20911;-72
2020/12/21 04:59:16;;;;;;;21.23;14.45;;;;;;;-1.02;82.38;99601.73;1751687;82;39059;-72
2020/12/21 05:01:44;;;;;;;23.87;16.02;;;;;;;-1.01;82.39;99599.95;1757152;81;20967;-72
2020/12/21 05:04:14;;;;;;;24.23;15.80;;;;;;;-1.01;82.33;99606.55;1752122;82;21344;-72
2020/12/21 05:06:52;;;;;;;23.22;15.95;;;;;;;-1.00;82.26;99605.23;1752075;82;20990;-73
2020/12/21 05:09:22;;;;;;;23.60;16.07;;;;;;;-1.00;82.21;99601.27;1752091;82;20912;-72
2020/12/21 05:11:56;;;;;;;27.98;16.80;;;;;;;-1.00;82.30;99604.36;1752006;82;21318;-72
2020/12/21 05:14:31;;;;;;;22.62;14.13;;;;;;;-1.01;82.36;99608.77;1751925;82;20955;-73
2020/12/21 05:17:15;;;;;;;22.67;15.08;;;;;;;-1.02;82.32;99606.14;1757469;81;21353;-73
2020/12/21 05:19:43;;;;;;;21.85;15.88;;;;;;;-1.03;82.22;99607.88;1752257;82;20979;-73
2020/12/21 05:22:16;;;;;;;23.62;15.55;;;;;;;-1.03;82.29;99599.96;1757479;81;21356;-73
2020/12/21 05:24:44;;;;;;;19.73;15.18;;;;;;;-1.03;82.32;99603.92;1752077;82;22035;-72
2020/12/21 05:27:16;;;;;;;22.80;16.02;;;;;;;-1.03;82.27;99603.92;1757387;81;21018;-72
2020/12/21 05:29:54;;;;;;;24.90;15.23;;;;;;;-1.02;82.28;99607.45;1752252;82;21003;-72
2020/12/21 05:32:22;;;;;;;23.95;14.85;;;;;;;-1.03;82.05;99607.01;1757331;81;21487;-73
2020/12/21 05:34:50;;;;;;;27.40;16.25;;;;;;;-1.03;82.08;99618.88;1751974;82;20985;-73
2020/12/21 05:37:20;;;;;;;20.60;15.23;;;;;;;-1.04;82.07;99611.83;1752030;82;21362;-73
2020/12/21 05:39:54;;;;;;;22.45;15.53;;;;;;;-1.06;82.10;99610.97;1757349;81;21368;-73
2020/12/21 05:42:22;;;;;;;28.00;16.02;;;;;;;-1.06;82.08;99613.16;1751824;82;20888;-74
2020/12/21 05:44:54;;;;;;;29.80;17.85;;;;;;;-1.06;82.15;99614.92;1751909;82;20879;-73
2020/12/21 05:47:24;;;;;;;;;;;;;;;-1.07;82.10;99615.80;1760044;81;20947;-73
2020/12/21 05:49:57;;;;;;;46.85;19.25;;;;;;;-1.07;81.95;99622.39;1752058;82;21366;-73
2020/12/21 05:52:36;;;;;;;20.68;14.18;;;;;;;-1.08;81.94;99624.61;1751920;81;21456;-73
2020/12/21 05:55:11;;;;;;;26.17;15.70;;;;;;;-1.10;81.96;99630.75;1757284;81;20983;-73
2020/12/21 05:57:39;;;;;;;22.33;11.97;;;;;;;-1.12;81.74;99628.57;1752212;82;21344;-73
2020/12/21 06:00:10;;;;;;;20.12;14.93;;;;;;;-1.14;81.81;99625.48;1752197;82;21357;-72
2020/12/21 06:02:37;;;;;;;21.93;12.93;;;;;;;-1.17;81.78;99629.00;1758913;80;22058;-73
2020/12/21 06:05:12;;;;;;;23.55;15.70;;;;;;;-1.18;81.84;99626.36;1759871;81;21396;-73
2020/12/21 06:07:46;;;;;;;26.52;17.15;;;;;;;-1.21;81.88;99633.86;1759927;81;20934;-73
2020/12/21 06:10:15;;;;;;;24.20;14.75;;;;;;;-1.22;82.03;99634.73;1759998;81;21412;-73
2020/12/21 06:12:47;;;;;;;22.77;15.58;;;;;;;-1.23;82.08;99628.14;1759911;81;20974;-73
2020/12/21 06:15:19;;;;;;;26.37;16.53;;;;;;;-1.25;82.05;99630.78;1760176;81;21803;-73
2020/12/21 06:17:48;;;;;;;34.43;19.82;;;;;;;-1.26;82.10;99629.05;1760024;81;20930;-73
2020/12/21 06:20:17;;;;;;;26.77;17.37;;;;;;;-1.26;82.29;99633.00;1759317;81;20931;-73
2020/12/21 06:22:45;;;;;;;23.32;16.27;;;;;;;-1.26;82.45;99629.05;1759863;81;20974;-73
2020/12/21 06:25:24;;;;;;;27.25;17.30;;;;;;;-1.26;82.50;99635.64;1759910;81;21563;-74
2020/12/21 06:27:51;;;;;;;22.00;15.13;;;;;;;-1.24;82.49;99636.95;1733101;81;21352;-72
2020/12/21 06:30:29;;;;;;;25.02;16.70;;;;;;;-1.24;82.53;99635.19;1759814;81;21375;-73
2020/12/21 06:33:02;;;;;;;28.10;17.27;;;;;;;-1.22;82.47;99637.81;1759902;81;20994;-73
2020/12/21 06:35:42;;;;;;;26.35;17.07;;;;;;;-1.24;82.55;99635.19;1759865;81;20939;-73
2020/12/21 06:38:10;;;;;;;25.97;17.05;;;;;;;-1.23;82.60;99636.05;1760000;81;20919;-74
2020/12/21 06:40:39;;;;;;;22.13;15.28;;;;;;;-1.21;82.55;99636.50;1759908;81;22357;-74
2020/12/21 06:43:11;;;;;;;23.85;16.23;;;;;;;-1.20;82.41;99635.63;1759950;81;21368;-74
2020/12/21 06:45:41;;;;;;;24.52;16.17;;;;;;;-1.21;82.44;99633.86;1759990;81;20920;-74
2020/12/21 06:48:09;;;;;;;21.23;16.65;;;;;;;-1.21;82.47;99639.12;1759931;81;21309;-72
2020/12/21 06:50:36;;;;;;;25.48;15.53;;;;;;;-1.21;82.42;99637.81;1760015;81;20943;-73
2020/12/21 06:53:08;;;;;;;27.55;16.57;;;;;;;-1.18;82.46;99642.19;1760008;81;21913;-74
2020/12/21 06:55:36;;;;;;;29.48;17.87;;;;;;;-1.19;82.50;99640.00;1759923;81;21432;-73
2020/12/21 06:58:03;;;;;;;28.77;17.12;;;;;;;-1.16;82.58;99645.72;1759857;81;21025;-73
2020/12/21 07:00:32;;;;;;;35.73;18.23;;;;;;;-1.14;82.59;99646.58;1759732;81;21037;-74
2020/12/21 07:03:00;;;;;;;37.45;21.07;;;;;;;-1.12;82.46;99651.41;1774064;80;20920;-71
2020/12/21 07:05:28;;;;;;;31.07;16.27;;;;;;;-1.11;82.60;99648.77;1784727;80;21804;-73
2020/12/21 07:08:00;;;;;;;30.92;17.15;;;;;;;-1.10;82.48;99651.84;1785284;80;21369;-71
2020/12/21 07:10:33;;;;;;;29.52;17.87;;;;;;;-1.08;82.44;99656.25;1785058;80;21026;-71
2020/12/21 07:13:02;;;;;;;24.52;15.88;;;;;;;-1.08;82.61;99647.89;1784770;80;25427;-70
2020/12/21 07:15:32;;;;;;;27.55;17.23;;;;;;;-1.04;82.61;99647.43;1785237;80;20920;-70
2020/12/21 07:18:01;;;;;;;34.48;20.48;;;;;;;-1.02;82.54;99648.33;1785375;80;22416;-70
2020/12/21 07:20:30;;;;;;;31.45;18.90;;;;;;;-1.00;82.59;99641.28;1785322;80;20956;-70
2020/12/21 07:22:58;;;;;;;28.17;18.70;;;;;;;-0.96;82.49;99641.27;1785235;80;21023;-68
2020/12/21 07:25:25;;;;;;;29.42;17.32;;;;;;;-0.93;82.21;99650.91;1785225;80;20991;-70
2020/12/21 07:27:54;;;;;;;25.17;16.02;;;;;;;-0.92;82.06;99641.68;1785191;80;21484;-70
2020/12/21 07:30:26;;;;;;;21.90;14.30;;;;;;;-0.90;81.93;99641.67;1785382;80;22761;-70
2020/12/21 07:32:55;;;;;;;24.90;16.17;;;;;;;-0.89;81.69;99640.80;1785321;80;20987;-69
2020/12/21 07:35:24;;;;;;;23.65;15.78;;;;;;;-0.89;81.40;99650.03;1784138;80;21019;-69
2020/12/21 07:37:57;;;;;;;18.17;12.98;;;;;;;-0.89;81.55;99641.25;1784023;80;21011;-71
2020/12/21 07:40:26;;;;;;;33.40;15.40;;;;;;;-0.91;81.36;99641.26;1733489;80;21583;-70
2020/12/21 07:42:57;;;;;;;22.32;15.75;;;;;;;-0.89;81.20;99643.89;1785136;80;22285;-70
2020/12/21 07:45:29;;;;;;;31.85;16.50;;;;;;;-0.89;81.29;99640.80;1706812;81;20935;-69
2020/12/21 07:47:58;;;;;;;27.13;16.07;;;;;;;-0.88;81.36;99646.53;1752451;81;21023;-70
2020/12/21 07:50:27;;;;;;;24.27;15.43;;;;;;;-0.87;81.60;99649.58;1752025;81;20971;-80
2020/12/21 07:52:57;;;;;;;24.02;15.32;;;;;;;-0.85;81.74;99651.80;1751804;81;21066;-79
2020/12/21 07:55:26;;;;;;;24.35;15.85;;;;;;;-0.83;81.52;99650.02;1751911;81;23362;-73
2020/12/21 07:57:54;;;;;;;27.30;16.05;;;;;;;-0.79;81.37;99651.78;1730939;82;21039;-73
2020/12/21 08:00:22;;;;;;;32.90;18.30;;;;;;;-0.77;81.25;99661.88;1752881;81;21437;-72
2020/12/21 08:02:51;;;;;;;36.00;17.48;;;;;;;-0.74;81.18;99660.55;1722387;82;21413;-71
2020/12/21 08:05:20;;;;;;;25.60;16.95;;;;;;;-0.72;81.05;99667.14;1723951;82;20945;-72
2020/12/21 08:07:48;;;;;;;25.97;17.65;;;;;;;-0.68;80.86;99664.04;1723953;83;21865;-72
2020/12/21 08:10:19;;;;;;;22.48;14.70;;;;;;;-0.68;80.70;99658.77;1757329;81;20939;-72
2020/12/21 08:12:47;;;;;;;25.08;15.03;;;;;;;-0.68;80.48;99656.13;1750934;82;20943;-73
2020/12/21 08:15:15;;;;;;;23.38;16.48;;;;;;;-0.70;80.56;99661.86;1757356;81;21010;-72
2020/12/21 08:17:42;;;;;;;37.23;21.70;;;;;;;-0.70;80.82;99667.13;1704943;81;21006;-72
2020/12/21 08:20:10;;;;;;;59.40;31.73;;;;;;;-0.70;81.03;99661.86;1752031;82;21426;-72
2020/12/21 08:22:38;;;;;;;40.10;20.00;;;;;;;-0.67;81.14;99660.53;1757238;81;20953;-72
2020/12/21 08:25:11;;;;;;;43.40;21.50;;;;;;;-0.64;81.08;99660.52;1752043;82;21409;-71
2020/12/21 08:27:49;;;;;;;31.00;17.98;;;;;;;-0.61;81.03;99671.06;1752226;82;20931;-71
2020/12/21 08:30:19;;;;;;;29.67;17.60;;;;;;;-0.60;80.90;99667.52;1757439;81;20990;-71
2020/12/21 08:32:48;;;;;;;22.73;15.08;;;;;;;-0.57;80.92;99667.51;1752110;82;22229;-71
2020/12/21 08:35:28;;;;;;;23.10;15.23;;;;;;;-0.55;80.63;99673.68;1751918;81;21014;-71
2020/12/21 08:38:13;;;;;;;24.98;15.95;;;;;;;-0.55;80.43;99664.45;1757399;81;20919;-71
2020/12/21 08:40:41;;;;;;;22.87;15.28;;;;;;;-0.56;80.35;99664.00;1757361;81;20919;-71
2020/12/21 08:43:09;;;;;;;21.35;14.45;;;;;;;-0.56;80.37;99670.14;1752015;82;21317;-71
2020/12/21 08:45:37;;;;;;;22.48;15.53;;;;;;;-0.58;80.07;99676.33;1757399;81;21245;-71
2020/12/21 08:48:05;;;;;;;20.25;14.60;;;;;;;-0.59;80.27;99677.20;1751973;82;20975;-71
2020/12/21 08:50:33;;;;;;;31.20;17.17;;;;;;;-0.60;80.37;99672.80;1757459;81;21010;-72
2020/12/21 08:53:00;;;;;;;26.48;16.23;;;;;;;-0.58;80.40;99681.61;1752032;82;21535;-71
2020/12/21 08:55:28;;;;;;;22.27;15.63;;;;;;;-0.57;80.49;99684.66;1757436;81;21555;-71
2020/12/21 08:57:56;;;;;;;24.12;16.82;;;;;;;-0.56;80.45;99685.98;1752066;82;21668;-70
2020/12/21 09:00:23;;;;;;;22.30;15.58;;;;;;;-0.54;80.46;99683.33;1757357;81;21084;-71
2020/12/21 09:02:50;;;;;;;23.12;16.37;;;;;;;-0.52;80.52;99680.27;1751912;81;20967;-71
2020/12/21 09:05:18;;;;;;;19.37;13.75;;;;;;;-0.51;80.39;99680.69;1751892;82;20907;-72
2020/12/21 09:07:46;;;;;;;21.40;15.98;;;;;;;-0.48;80.34;99667.93;1757430;81;20982;-71
2020/12/21 09:10:23;;;;;;;30.05;17.05;;;;;;;-0.48;80.10;99676.71;1752025;82;21192;-71
2020/12/21 09:12:54;;;;;;;30.90;19.77;;;;;;;-0.47;80.39;99670.98;1752070;81;21003;-71
2020/12/21 09:15:23;;;;;;;21.40;13.58;;;;;;;-0.45;80.50;99672.74;1757264;81;21006;-72
2020/12/21 09:17:52;;;;;;;22.37;15.65;;;;;;;-0.42;80.46;99671.41;1751965;82;20912;-72
2020/12/21 09:20:20;;;;;;;23.67;15.40;;;;;;;-0.40;80.13;99664.80;1752062;82;20876;-71
2020/12/21 09:22:47;;;;;;;20.52;15.35;;;;;;;-0.38;80.03;99663.92;1757422;81;21148;-72
2020/12/21 09:25:16;;;;;;;21.62;14.63;;;;;;;-0.37;79.67;99672.26;1757348;81;21443;-74
2020/12/21 09:27:45;;;;;;;19.42;13.98;;;;;;;-0.38;79.75;99669.20;1752084;82;21002;-72
2020/12/21 09:30:18;;;;;;;21.55;15.53;;;;;;;-0.36;79.81;99670.52;1752173;82;20916;-82
2020/12/21 09:32:47;;;;;;;25.88;15.25;;;;;;;-0.34;79.76;99664.78;1752572;81;20936;-71
2020/12/21 09:35:16;;;;;;;23.95;17.02;;;;;;;-0.30;79.77;99666.95;1757081;80;22374;-72
2020/12/21 09:37:45;;;;;;;25.08;15.38;;;;;;;-0.30;79.65;99661.25;1752127;82;20978;-73
2020/12/21 09:40:15;;;;;;;21.70;14.87;;;;;;;-0.27;79.78;99657.70;1748644;82;20959;-72
2020/12/21 09:42:44;;;;;;;26.25;17.37;;;;;;;-0.24;79.53;99660.32;1752186;82;21018;-74
2020/12/21 09:45:14;;;;;;;20.02;14.68;;;;;;;-0.24;79.37;99653.72;1757719;81;21002;-72
2020/12/21 09:47:44;;;;;;;18.35;14.80;;;;;;;-0.23;79.51;99660.77;1752386;82;21644;-78
2020/12/21 09:50:13;;;;;;;23.07;15.53;;;;;;;-0.21;79.64;99660.31;1757180;81;20907;-70
2020/12/21 09:52:44;;;;;;;24.70;17.40;;;;;;;-0.18;79.41;99655.02;1752004;82;20979;-70
2020/12/21 09:55:14;;;;;;;25.70;17.05;;;;;;;-0.16;79.28;99655.88;1757432;81;20876;-69
2020/12/21 09:57:44;;;;;;;18.27;13.75;;;;;;;-0.13;79.32;99658.49;1725596;81;21037;-69
2020/12/21 10:00:14;;;;;;;26.07;14.90;;;;;;;-0.14;78.92;99654.12;1752160;82;21436;-69
2020/12/21 10:02:45;;;;;;;24.57;16.32;;;;;;;-0.13;79.00;99654.53;1756151;80;21558;-75
2020/12/21 10:05:15;;;;;;;24.87;15.53;;;;;;;-0.16;79.14;99646.62;1783414;80;21003;-83
2020/12/21 10:07:45;;;;;;;20.62;15.23;;;;;;;-0.13;79.18;99651.02;1784000;80;21063;-83
2020/12/21 10:10:15;;;;;;;20.60;14.53;;;;;;;-0.10;79.06;99646.59;1784304;80;20990;-81
2020/12/21 10:12:44;;;;;;;24.77;16.27;;;;;;;-0.08;79.04;99639.56;1784124;80;21832;-83
2020/12/21 10:15:13;;;;;;;24.37;16.00;;;;;;;-0.06;79.17;99644.38;1727165;81;21074;-82
2020/12/21 10:17:42;;;;;;;29.42;16.77;;;;;;;-0.01;79.25;99636.42;1752297;81;21038;-82
2020/12/21 10:20:11;;;;;;;19.95;16.37;;;;;;;0.04;79.08;99633.76;1752728;81;21480;-81
2020/12/21 10:22:39;;;;;;;23.77;15.95;;;;;;;0.08;78.85;99627.13;1752833;81;21006;-81
2020/12/21 10:25:11;;;;;;;18.15;14.50;;;;;;;0.11;78.85;99630.16;1752500;81;21430;-80
2020/12/21 10:27:41;;;;;;;28.12;16.57;;;;;;;0.14;78.74;99628.82;1752541;81;21571;-80
2020/12/21 10:30:10;;;;;;;23.52;16.62;;;;;;;0.17;78.92;99622.20;1753451;81;20951;-81
2020/12/21 10:32:38;;;;;;;20.45;16.20;;;;;;;0.22;79.00;99621.73;1731883;82;20958;-81
2020/12/21 10:35:39;;;;;;;23.70;17.05;;;;;;;0.30;78.89;99625.19;1842283;78;27946;-79
2020/12/21 10:38:09;;;;;;;28.95;17.87;;;;;;;0.30;78.63;99622.55;1817626;79;21027;-80
2020/12/21 10:40:36;;;;;;;26.60;17.85;;;;;;;0.34;78.45;99619.42;1817550;79;21805;-80
2020/12/21 10:43:06;;;;;;;25.97;16.32;;;;;;;0.38;78.32;99620.27;1817027;79;21043;-78
2020/12/21 10:45:35;;;;;;;27.70;16.73;;;;;;;0.41;78.32;99617.59;1816874;79;20928;-80
2020/12/21 10:48:05;;;;;;;24.72;16.05;;;;;;;0.46;78.46;99614.04;1749119;82;20997;-81
